Time;durP1;ratioP1;P1;durP2;ratioP2;P2;SDS_P1;SDS_P2;PMS_P1;PMS_P2;Temp;Humidity;BMP_temperature;BMP_pressure;BME280_temperature;BME280_humidity;BME280_pressure;Samples;Min_cycle;Max_cycle;Signal;HPM_P1;HPM_P2
2022/01/11 00:00:15;;;;;;;45.58;26.55;;;;;;;;;;5053690;28;20093;-60
2022/01/11 00:02:44;;;;;;;45.75;26.95;;;;;;;;;;5051779;28;20053;-60
2022/01/11 00:05:24;;;;;;;53.78;26.02;;;;;;;;;;5052505;28;20060;-60
2022/01/11 00:07:51;;;;;;;45.40;24.25;;;;;;;;;;5039465;28;20068;-60
2022/01/11 00:10:27;;;;;;;49.28;26.65;;;;;;;;;;5053149;28;20094;-60
2022/01/11 00:12:53;;;;;;;48.80;25.48;;;;;;;;;;5036095;28;20080;-60
2022/01/11 00:15:19;;;;;;;46.88;24.77;;;;;;;;;;5052195;28;20037;-61
2022/01/11 00:17:45;;;;;;;46.70;25.83;;;;;;;;;;5052736;28;20043;-61
2022/01/11 00:20:13;;;;;;;45.42;25.55;;;;;;;;;;5054162;28;20067;-60
2022/01/11 00:24:26;;;;;;;41.60;24.83;;;;;;;;;;5053818;28;20085;-60
2022/01/11 00:25:26;;;;;;;42.88;22.90;;;;;;;;;;5049959;28;20095;-60
2022/01/11 00:27:52;;;;;;;47.05;24.33;;;;;;;;;;5053084;28;20073;-60
2022/01/11 00:30:19;;;;;;;42.42;24.40;;;;;;;;;;5035677;28;20048;-60
2022/01/11 00:32:51;;;;;;;42.88;23.38;;;;;;;;;;5048809;28;20072;-60
2022/01/11 00:35:21;;;;;;;39.85;22.23;;;;;;;;;;5049447;28;20045;-60
2022/01/11 00:37:47;;;;;;;39.60;21.95;;;;;;;;;;5051790;28;20095;-60
2022/01/11 00:40:14;;;;;;;43.38;24.42;;;;;;;;;;5051597;28;20430;-61
2022/01/11 00:42:40;;;;;;;40.45;22.45;;;;;;;;;;5049429;28;20132;-60
2022/01/11 00:45:07;;;;;;;42.70;22.67;;;;;;;;;;5048370;28;20033;-60
2022/01/11 00:47:34;;;;;;;36.67;22.38;;;;;;;;;;5032226;28;20057;-61
2022/01/11 00:50:00;;;;;;;42.95;21.15;;;;;;;;;;5046578;28;20136;-60
2022/01/11 00:52:26;;;;;;;38.67;23.02;;;;;;;;;;5032383;28;20057;-60
2022/01/11 00:54:52;;;;;;;42.78;23.42;;;;;;;;;;5049435;28;20496;-60
2022/01/11 00:57:18;;;;;;;40.33;23.33;;;;;;;;;;5051257;28;20040;-60
2022/01/11 00:59:44;;;;;;;45.80;23.77;;;;;;;;;;5030994;28;20118;-60
2022/01/11 01:02:11;;;;;;;45.78;24.30;;;;;;;;;;5051002;28;20508;-60
2022/01/11 01:04:37;;;;;;;44.72;24.35;;;;;;;;;;5032454;28;20119;-60
2022/01/11 01:07:03;;;;;;;40.00;23.23;;;;;;;;;;5059276;28;20045;-60
2022/01/11 01:09:37;;;;;;;41.20;23.13;;;;;;;;;;5034821;28;20060;-60
2022/01/11 01:12:04;;;;;;;47.97;23.65;;;;;;;;;;5048195;28;20060;-60
2022/01/11 01:14:30;;;;;;;40.60;24.05;;;;;;;;;;5045698;28;20419;-60
2022/01/11 01:16:56;;;;;;;39.92;22.70;;;;;;;;;;5046367;28;20099;-60
2022/01/11 01:19:26;;;;;;;38.42;23.02;;;;;;;;;;5031403;28;20102;-60
2022/01/11 01:21:54;;;;;;;49.08;23.50;;;;;;;;;;5050705;28;20452;-60
2022/01/11 01:24:20;;;;;;;44.92;23.33;;;;;;;;;;5049674;28;20037;-60
2022/01/11 01:26:46;;;;;;;51.53;23.75;;;;;;;;;;5050116;28;20037;-60
2022/01/11 01:29:14;;;;;;;46.33;24.17;;;;;;;;;;5048472;28;20124;-60
2022/01/11 01:31:40;;;;;;;47.25;23.92;;;;;;;;;;5052838;28;20095;-60
2022/01/11 01:34:06;;;;;;;43.15;23.23;;;;;;;;;;5052140;28;20346;-60
2022/01/11 01:36:33;;;;;;;53.22;22.92;;;;;;;;;;5032651;28;20052;-60
2022/01/11 01:38:59;;;;;;;44.72;23.10;;;;;;;;;;5047861;28;20044;-60
2022/01/11 01:41:26;;;;;;;40.55;22.55;;;;;;;;;;5033565;28;20428;-61
2022/01/11 01:43:55;;;;;;;48.63;23.83;;;;;;;;;;5048880;28;20121;-61
2022/01/11 01:46:22;;;;;;;43.47;23.02;;;;;;;;;;5047911;28;20072;-60
2022/01/11 01:48:48;;;;;;;44.30;22.42;;;;;;;;;;5047584;28;20037;-60
2022/01/11 01:51:14;;;;;;;49.92;24.63;;;;;;;;;;5048751;28;21032;-61
2022/01/11 01:53:43;;;;;;;45.95;23.13;;;;;;;;;;5051486;28;20396;-61
2022/01/11 01:56:10;;;;;;;43.08;22.75;;;;;;;;;;5054462;28;20205;-60
2022/01/11 01:58:37;;;;;;;44.13;23.80;;;;;;;;;;5050525;28;20586;-60
2022/01/11 02:01:05;;;;;;;49.67;23.92;;;;;;;;;;5050863;28;20040;-60
2022/01/11 02:03:37;;;;;;;53.88;22.77;;;;;;;;;;5051342;28;20132;-60
2022/01/11 02:06:05;;;;;;;51.47;22.55;;;;;;;;;;5033350;28;20045;-61
2022/01/11 02:08:32;;;;;;;48.72;22.67;;;;;;;;;;5046809;28;20045;-60
2022/01/11 02:10:58;;;;;;;47.85;21.77;;;;;;;;;;5046210;28;20512;-61
2022/01/11 02:13:24;;;;;;;43.13;21.50;;;;;;;;;;5048513;28;20033;-60
2022/01/11 02:15:51;;;;;;;39.17;20.63;;;;;;;;;;5048406;28;20060;-61
2022/01/11 02:18:21;;;;;;;42.67;22.77;;;;;;;;;;5045092;28;20068;-60
2022/01/11 02:20:49;;;;;;;45.80;21.92;;;;;;;;;;5049186;28;20114;-61
2022/01/11 02:23:16;;;;;;;39.17;20.90;;;;;;;;;;5048521;28;20451;-60
2022/01/11 02:25:42;;;;;;;43.80;21.98;;;;;;;;;;5028064;28;20036;-60
2022/01/11 02:28:13;;;;;;;37.72;20.70;;;;;;;;;;5050558;28;20523;-60
2022/01/11 02:30:39;;;;;;;45.00;22.42;;;;;;;;;;5032454;28;20049;-60
2022/01/11 02:33:12;;;;;;;47.92;21.45;;;;;;;;;;5038060;28;20067;-60
2022/01/11 02:35:39;;;;;;;55.47;23.75;;;;;;;;;;5048192;28;20049;-60
2022/01/11 02:38:05;;;;;;;54.30;24.08;;;;;;;;;;5046615;28;20041;-60
2022/01/11 02:40:31;;;;;;;42.13;22.83;;;;;;;;;;5030951;28;20106;-61
2022/01/11 02:42:57;;;;;;;47.13;22.45;;;;;;;;;;5033351;28;20041;-60
2022/01/11 02:45:23;;;;;;;46.70;22.20;;;;;;;;;;5049127;28;20063;-60
2022/01/11 02:47:50;;;;;;;47.83;23.70;;;;;;;;;;5029095;28;20104;-61
2022/01/11 02:50:17;;;;;;;48.10;23.15;;;;;;;;;;5046887;28;20052;-60
2022/01/11 02:52:43;;;;;;;44.53;22.58;;;;;;;;;;5047540;28;20072;-61
2022/01/11 02:55:11;;;;;;;55.20;23.85;;;;;;;;;;5049094;28;20072;-60
2022/01/11 02:57:37;;;;;;;50.35;23.85;;;;;;;;;;5045347;28;20499;-61
2022/01/11 03:00:05;;;;;;;47.67;24.48;;;;;;;;;;5028651;28;20049;-60
2022/01/11 03:02:32;;;;;;;57.95;25.95;;;;;;;;;;5048529;28;20072;-61
2022/01/11 03:04:58;;;;;;;50.47;25.08;;;;;;;;;;5033375;28;20072;-61
2022/01/11 03:07:24;;;;;;;54.70;24.05;;;;;;;;;;5048777;28;20057;-61
2022/01/11 03:10:02;;;;;;;50.58;25.45;;;;;;;;;;5029038;28;20492;-61
2022/01/11 03:12:29;;;;;;;55.38;24.17;;;;;;;;;;5024525;28;20049;-60
2022/01/11 03:14:55;;;;;;;46.30;23.38;;;;;;;;;;5045945;28;20401;-60
2022/01/11 03:17:21;;;;;;;49.00;23.50;;;;;;;;;;5046142;28;20099;-61
2022/01/11 03:19:48;;;;;;;50.10;24.73;;;;;;;;;;5044972;28;20036;-60
2022/01/11 03:22:14;;;;;;;47.63;23.77;;;;;;;;;;5030003;28;20523;-61
2022/01/11 03:24:40;;;;;;;58.97;24.65;;;;;;;;;;5061212;28;20156;-61
2022/01/11 03:27:07;;;;;;;51.35;23.52;;;;;;;;;;5050401;28;20041;-61
2022/01/11 03:29:34;;;;;;;46.75;23.92;;;;;;;;;;5036819;28;20139;-60
2022/01/11 03:32:00;;;;;;;50.65;22.70;;;;;;;;;;5046069;28;20541;-60
2022/01/11 03:34:26;;;;;;;58.97;24.88;;;;;;;;;;5029190;28;20041;-61
2022/01/11 03:36:52;;;;;;;51.78;23.55;;;;;;;;;;5030043;28;20062;-61
2022/01/11 03:39:19;;;;;;;54.13;24.52;;;;;;;;;;5045074;28;20046;-61
2022/01/11 03:41:45;;;;;;;48.28;23.05;;;;;;;;;;5046642;28;20051;-60
2022/01/11 03:44:11;;;;;;;57.25;26.05;;;;;;;;;;5044120;28;20499;-60
2022/01/11 03:46:37;;;;;;;47.85;23.65;;;;;;;;;;5048642;28;20318;-61
2022/01/11 03:49:03;;;;;;;58.88;26.35;;;;;;;;;;5045187;28;20079;-61
2022/01/11 03:51:32;;;;;;;53.55;25.50;;;;;;;;;;5049059;28;20044;-61
2022/01/11 03:54:11;;;;;;;50.05;24.10;;;;;;;;;;5050270;28;20130;-61
2022/01/11 03:56:37;;;;;;;63.55;26.65;;;;;;;;;;5052249;28;20043;-61
2022/01/11 03:59:06;;;;;;;54.95;24.60;;;;;;;;;;5048423;28;20462;-61
2022/01/11 04:01:34;;;;;;;59.47;25.85;;;;;;;;;;5029428;28;20068;-61
2022/01/11 04:04:00;;;;;;;62.70;26.60;;;;;;;;;;5047112;28;20081;-61
2022/01/11 04:06:27;;;;;;;58.45;24.92;;;;;;;;;;5045189;28;20057;-61
2022/01/11 04:08:53;;;;;;;56.88;25.08;;;;;;;;;;5047924;28;20049;-60
2022/01/11 04:11:20;;;;;;;53.85;25.98;;;;;;;;;;5046314;28;20045;-61
2022/01/11 04:13:47;;;;;;;53.83;24.52;;;;;;;;;;5043739;28;20547;-60
2022/01/11 04:16:13;;;;;;;46.67;23.98;;;;;;;;;;5048228;28;20108;-60
2022/01/11 04:18:39;;;;;;;49.55;23.85;;;;;;;;;;5049390;28;20033;-60
2022/01/11 04:21:05;;;;;;;57.80;23.80;;;;;;;;;;5047083;28;20049;-60
2022/01/11 04:23:32;;;;;;;56.33;25.73;;;;;;;;;;5049093;28;20037;-61
2022/01/11 04:25:59;;;;;;;54.60;25.17;;;;;;;;;;5050063;28;20645;-60
2022/01/11 04:28:27;;;;;;;55.90;24.70;;;;;;;;;;5049586;28;20051;-61
2022/01/11 04:30:57;;;;;;;59.03;26.05;;;;;;;;;;5045867;28;20481;-60
2022/01/11 04:33:24;;;;;;;58.08;24.85;;;;;;;;;;5049508;28;20114;-61
2022/01/11 04:35:50;;;;;;;57.50;24.85;;;;;;;;;;5048774;28;20408;-60
2022/01/11 04:38:18;;;;;;;55.67;24.38;;;;;;;;;;5046741;28;20033;-60
2022/01/11 04:40:45;;;;;;;53.35;24.92;;;;;;;;;;5046696;28;20045;-61
2022/01/11 04:43:11;;;;;;;56.30;26.08;;;;;;;;;;5045419;28;20056;-61
2022/01/11 04:45:38;;;;;;;57.33;24.83;;;;;;;;;;5050229;28;20128;-61
2022/01/11 04:48:04;;;;;;;65.55;26.33;;;;;;;;;;5053394;28;20403;-61
2022/01/11 04:50:31;;;;;;;64.95;25.15;;;;;;;;;;5035814;28;20088;-61
2022/01/11 04:52:57;;;;;;;52.75;25.00;;;;;;;;;;5050435;28;20401;-60
2022/01/11 04:55:23;;;;;;;57.40;25.02;;;;;;;;;;5046576;28;20409;-60
2022/01/11 04:57:50;;;;;;;63.00;24.73;;;;;;;;;;5041042;28;20117;-61
2022/01/11 05:00:17;;;;;;;60.63;25.73;;;;;;;;;;5052658;28;20167;-60
2022/01/11 05:02:43;;;;;;;61.80;24.15;;;;;;;;;;5052751;28;20392;-61
2022/01/11 05:05:10;;;;;;;65.07;27.60;;;;;;;;;;5053893;28;20128;-61
2022/01/11 05:07:36;;;;;;;59.67;26.05;;;;;;;;;;5048872;28;20041;-60
2022/01/11 05:10:04;;;;;;;61.58;25.35;;;;;;;;;;5052555;28;20049;-60
2022/01/11 05:12:30;;;;;;;62.20;25.58;;;;;;;;;;5052434;28;20081;-61
2022/01/11 05:14:56;;;;;;;77.68;26.45;;;;;;;;;;5051113;28;20041;-60
2022/01/11 05:17:22;;;;;;;54.10;24.35;;;;;;;;;;5032262;28;20051;-61
2022/01/11 05:19:48;;;;;;;62.67;25.95;;;;;;;;;;5047779;28;20075;-61
2022/01/11 05:22:15;;;;;;;56.97;26.88;;;;;;;;;;5047716;28;20033;-60
2022/01/11 05:24:41;;;;;;;69.07;26.70;;;;;;;;;;5050651;28;20459;-61
2022/01/11 05:27:08;;;;;;;60.38;26.40;;;;;;;;;;5055352;28;20045;-61
2022/01/11 05:29:34;;;;;;;55.70;25.38;;;;;;;;;;5032729;28;20095;-61
2022/01/11 05:32:02;;;;;;;58.63;25.17;;;;;;;;;;5054421;28;20547;-61
2022/01/11 05:34:29;;;;;;;64.68;26.23;;;;;;;;;;5048516;28;20059;-61
2022/01/11 05:36:55;;;;;;;58.88;24.92;;;;;;;;;;5049330;28;20047;-60
2022/01/11 05:39:21;;;;;;;62.67;24.90;;;;;;;;;;5048342;28;20072;-60
2022/01/11 05:41:47;;;;;;;57.10;24.95;;;;;;;;;;5029287;28;20044;-60
2022/01/11 05:44:14;;;;;;;63.47;25.83;;;;;;;;;;5033729;28;20051;-61
2022/01/11 05:46:40;;;;;;;56.42;24.83;;;;;;;;;;5052397;28;20084;-61
2022/01/11 05:49:06;;;;;;;57.63;25.45;;;;;;;;;;5045687;28;20041;-60
2022/01/11 05:51:32;;;;;;;59.00;24.13;;;;;;;;;;5048638;28;20493;-61
2022/01/11 05:53:58;;;;;;;52.80;23.23;;;;;;;;;;5049162;28;20041;-61
2022/01/11 05:56:24;;;;;;;56.50;23.98;;;;;;;;;;5047737;28;20070;-70
2022/01/11 05:58:52;;;;;;;55.72;24.15;;;;;;;;;;5025552;28;20045;-60
2022/01/11 06:01:18;;;;;;;54.30;22.95;;;;;;;;;;5043065;28;20125;-60
2022/01/11 06:03:45;;;;;;;62.50;25.70;;;;;;;;;;5044411;28;20104;-61
2022/01/11 06:06:11;;;;;;;62.47;25.92;;;;;;;;;;5027533;28;20456;-61
2022/01/11 06:08:37;;;;;;;53.20;24.73;;;;;;;;;;5031350;28;20055;-60
2022/01/11 06:11:03;;;;;;;65.85;24.38;;;;;;;;;;5025599;28;20159;-61
2022/01/11 06:13:30;;;;;;;61.92;25.10;;;;;;;;;;5026010;28;20053;-61
2022/01/11 06:15:56;;;;;;;62.67;26.80;;;;;;;;;;5013845;28;20396;-61
2022/01/11 06:18:22;;;;;;;65.05;23.67;;;;;;;;;;5028534;28;20045;-61
2022/01/11 06:20:48;;;;;;;57.20;25.02;;;;;;;;;;5024292;28;20049;-61
2022/01/11 06:23:14;;;;;;;57.28;24.00;;;;;;;;;;5025290;28;20113;-61
2022/01/11 06:25:40;;;;;;;58.80;24.98;;;;;;;;;;5029624;28;20087;-61
2022/01/11 06:28:06;;;;;;;59.90;25.83;;;;;;;;;;5031034;28;20046;-61
2022/01/11 06:30:33;;;;;;;52.67;23.48;;;;;;;;;;5033636;28;20124;-62
2022/01/11 06:32:59;;;;;;;56.60;23.98;;;;;;;;;;5035271;28;20040;-61
2022/01/11 06:35:25;;;;;;;51.03;22.80;;;;;;;;;;5030600;28;20056;-61
2022/01/11 06:37:52;;;;;;;55.95;22.45;;;;;;;;;;5030751;28;20121;-62
2022/01/11 06:40:19;;;;;;;64.47;25.77;;;;;;;;;;5033396;28;20048;-61
2022/01/11 06:42:46;;;;;;;53.65;24.20;;;;;;;;;;5031362;28;20061;-61
2022/01/11 06:45:13;;;;;;;58.72;23.80;;;;;;;;;;5030072;28;20041;-62
2022/01/11 06:47:39;;;;;;;51.00;22.95;;;;;;;;;;5031843;28;20401;-62
2022/01/11 06:50:06;;;;;;;52.15;23.38;;;;;;;;;;5031446;28;20087;-62
2022/01/11 06:52:32;;;;;;;53.63;22.67;;;;;;;;;;5029493;28;20132;-62
2022/01/11 06:54:58;;;;;;;48.30;22.08;;;;;;;;;;5031759;28;20037;-62
2022/01/11 06:57:25;;;;;;;54.40;22.52;;;;;;;;;;5031447;28;20037;-62
2022/01/11 06:59:51;;;;;;;56.45;22.42;;;;;;;;;;5028105;28;20052;-62
2022/01/11 07:02:17;;;;;;;62.40;24.10;;;;;;;;;;5031921;28;20041;-62
2022/01/11 07:04:43;;;;;;;50.13;21.80;;;;;;;;;;5030361;28;20095;-62
2022/01/11 07:07:09;;;;;;;57.90;23.10;;;;;;;;;;5041698;28;20481;-61
2022/01/11 07:09:36;;;;;;;55.00;23.70;;;;;;;;;;5033368;28;20467;-61
2022/01/11 07:12:02;;;;;;;56.75;22.77;;;;;;;;;;5050858;28;20108;-61
2022/01/11 07:14:29;;;;;;;47.83;23.20;;;;;;;;;;5051119;28;20037;-61
2022/01/11 07:16:55;;;;;;;56.00;23.45;;;;;;;;;;5044643;28;20125;-62
2022/01/11 07:19:21;;;;;;;54.55;23.52;;;;;;;;;;5032135;28;20183;-61
2022/01/11 07:21:47;;;;;;;61.78;25.52;;;;;;;;;;5025678;28;20049;-61
2022/01/11 07:24:14;;;;;;;59.78;23.65;;;;;;;;;;5045943;28;20037;-61
2022/01/11 07:26:40;;;;;;;58.67;24.80;;;;;;;;;;5046205;28;20083;-61
2022/01/11 07:29:07;;;;;;;55.67;24.55;;;;;;;;;;5046362;28;20041;-61
2022/01/11 07:31:36;;;;;;;60.13;25.20;;;;;;;;;;5046786;28;20124;-61
2022/01/11 07:34:03;;;;;;;51.75;23.10;;;;;;;;;;5046506;28;20485;-61
2022/01/11 07:36:30;;;;;;;61.72;25.52;;;;;;;;;;5045636;28;20048;-62
2022/01/11 07:38:56;;;;;;;57.38;25.23;;;;;;;;;;5043311;28;20055;-62
2022/01/11 07:41:22;;;;;;;55.22;24.40;;;;;;;;;;5026585;28;20515;-62
2022/01/11 07:43:48;;;;;;;54.15;22.65;;;;;;;;;;5045206;28;20056;-61
2022/01/11 07:46:14;;;;;;;56.28;25.83;;;;;;;;;;5045283;28;20041;-61
2022/01/11 07:48:40;;;;;;;54.08;22.98;;;;;;;;;;5044701;28;20045;-61
2022/01/11 07:51:07;;;;;;;58.78;25.42;;;;;;;;;;5045547;28;20341;-62
2022/01/11 07:53:33;;;;;;;57.45;24.17;;;;;;;;;;5045153;28;20045;-61
2022/01/11 07:55:59;;;;;;;56.28;24.55;;;;;;;;;;5042179;28;20040;-61
2022/01/11 07:58:25;;;;;;;49.35;23.55;;;;;;;;;;5026706;28;20044;-61
2022/01/11 08:00:52;;;;;;;60.35;25.00;;;;;;;;;;5044244;28;20037;-61
2022/01/11 08:03:18;;;;;;;50.10;22.98;;;;;;;;;;5043780;28;20049;-61
2022/01/11 08:05:44;;;;;;;58.78;25.13;;;;;;;;;;5046697;28;20060;-61
2022/01/11 08:08:10;;;;;;;51.42;23.75;;;;;;;;;;5024484;28;20503;-61
2022/01/11 08:10:37;;;;;;;56.08;24.77;;;;;;;;;;5027672;28;20045;-61
2022/01/11 08:13:06;;;;;;;55.53;24.50;;;;;;;;;;5043885;28;20048;-61
2022/01/11 08:15:33;;;;;;;60.65;24.98;;;;;;;;;;5044068;28;20037;-62
2022/01/11 08:18:00;;;;;;;57.63;22.88;;;;;;;;;;5048584;28;20120;-62
2022/01/11 08:20:26;;;;;;;48.10;21.35;;;;;;;;;;5027865;28;20057;-61
2022/01/11 08:22:53;;;;;;;54.75;22.73;;;;;;;;;;5045895;28;20049;-61
2022/01/11 08:25:20;;;;;;;56.85;24.73;;;;;;;;;;5030326;28;20053;-61
2022/01/11 08:27:46;;;;;;;62.92;25.73;;;;;;;;;;5029606;28;20045;-61
2022/01/11 08:30:13;;;;;;;63.83;25.17;;;;;;;;;;5029154;28;20098;-61
2022/01/11 08:32:39;;;;;;;62.60;24.67;;;;;;;;;;5047526;28;20041;-61
2022/01/11 08:35:06;;;;;;;63.67;26.40;;;;;;;;;;5048057;28;20037;-62
2022/01/11 08:37:32;;;;;;;60.70;24.10;;;;;;;;;;5028281;28;20045;-61
2022/01/11 08:39:58;;;;;;;57.83;25.80;;;;;;;;;;5048837;28;20049;-61
2022/01/11 08:42:25;;;;;;;66.68;26.60;;;;;;;;;;5049878;28;20080;-61
2022/01/11 08:44:51;;;;;;;62.20;27.00;;;;;;;;;;5046222;28;20051;-61
2022/01/11 08:47:18;;;;;;;70.90;26.92;;;;;;;;;;5047676;28;20127;-61
2022/01/11 08:49:45;;;;;;;72.28;27.60;;;;;;;;;;5048312;28;20041;-61
2022/01/11 08:52:11;;;;;;;65.50;27.52;;;;;;;;;;5030750;28;20166;-62
2022/01/11 08:54:38;;;;;;;71.90;27.00;;;;;;;;;;5048068;28;20044;-61
2022/01/11 08:57:04;;;;;;;67.57;27.65;;;;;;;;;;5047340;28;20037;-61
2022/01/11 08:59:31;;;;;;;65.43;25.80;;;;;;;;;;5046808;28;20147;-61
2022/01/11 09:01:59;;;;;;;70.82;27.80;;;;;;;;;;5049050;28;20134;-61
2022/01/11 09:04:26;;;;;;;70.28;29.58;;;;;;;;;;5048143;28;20037;-61
2022/01/11 09:06:57;;;;;;;78.20;28.73;;;;;;;;;;5046221;28;20049;-61
2022/01/11 09:09:24;;;;;;;71.63;28.98;;;;;;;;;;5030186;28;20461;-61
2022/01/11 09:11:51;;;;;;;66.90;28.83;;;;;;;;;;5047866;28;21202;-61
2022/01/11 09:14:18;;;;;;;68.15;27.33;;;;;;;;;;5029864;28;20435;-61
2022/01/11 09:16:44;;;;;;;72.63;29.27;;;;;;;;;;5030635;28;20178;-61
2022/01/11 09:19:12;;;;;;;78.95;30.77;;;;;;;;;;5030795;28;20101;-61
2022/01/11 09:21:38;;;;;;;78.55;31.05;;;;;;;;;;5046063;28;20056;-61
2022/01/11 09:24:05;;;;;;;78.60;29.80;;;;;;;;;;5046706;28;20056;-61
2022/01/11 09:26:31;;;;;;;76.50;28.60;;;;;;;;;;5050746;28;20051;-63
2022/01/11 09:28:58;;;;;;;72.63;29.95;;;;;;;;;;5033805;28;20477;-62
2022/01/11 09:31:24;;;;;;;83.30;31.45;;;;;;;;;;5034578;28;20128;-61
2022/01/11 09:33:50;;;;;;;81.57;32.60;;;;;;;;;;5034049;28;20372;-61
2022/01/11 09:36:17;;;;;;;86.07;32.80;;;;;;;;;;5052441;28;20037;-61
2022/01/11 09:38:43;;;;;;;78.40;32.63;;;;;;;;;;5034162;28;20056;-62
2022/01/11 09:41:09;;;;;;;80.95;33.00;;;;;;;;;;5051857;28;20106;-61
2022/01/11 09:43:35;;;;;;;76.68;30.13;;;;;;;;;;5051258;28;20403;-61
2022/01/11 09:46:01;;;;;;;87.60;31.75;;;;;;;;;;5034398;28;20048;-61
2022/01/11 09:48:32;;;;;;;78.63;31.88;;;;;;;;;;5033247;28;20041;-61
2022/01/11 09:50:58;;;;;;;83.28;32.78;;;;;;;;;;5051797;28;20143;-61
2022/01/11 09:53:25;;;;;;;80.13;30.92;;;;;;;;;;5051882;28;20045;-61
2022/01/11 09:55:51;;;;;;;85.63;31.92;;;;;;;;;;5051305;28;20112;-61
2022/01/11 09:58:18;;;;;;;85.30;32.53;;;;;;;;;;5034154;28;20501;-61
2022/01/11 10:00:45;;;;;;;78.65;32.75;;;;;;;;;;5032958;28;20044;-62
2022/01/11 10:03:11;;;;;;;78.28;30.52;;;;;;;;;;5034111;28;20532;-62
2022/01/11 10:05:38;;;;;;;75.30;29.50;;;;;;;;;;5051603;28;20037;-61
2022/01/11 10:08:22;;;;;;;70.05;29.52;;;;;;;;;;5050665;28;20049;-61
2022/01/11 10:10:49;;;;;;;79.75;32.67;;;;;;;;;;5051664;28;20048;-62
2022/01/11 10:13:29;;;;;;;76.60;31.70;;;;;;;;;;5051749;28;20037;-62
2022/01/11 10:15:55;;;;;;;81.20;32.35;;;;;;;;;;5050141;28;20040;-63
2022/01/11 10:18:35;;;;;;;78.43;32.67;;;;;;;;;;5051577;28;20045;-64
2022/01/11 10:21:01;;;;;;;83.13;32.33;;;;;;;;;;5033333;28;20057;-69
2022/01/11 10:23:32;;;;;;;75.65;32.67;;;;;;;;;;5033262;28;20044;-65
2022/01/11 10:25:59;;;;;;;69.50;29.25;;;;;;;;;;5049965;28;20551;-66
2022/01/11 10:28:35;;;;;;;79.97;31.05;;;;;;;;;;5051558;28;20412;-70
2022/01/11 10:31:01;;;;;;;66.28;28.88;;;;;;;;;;5032412;28;20064;-69
2022/01/11 10:33:27;;;;;;;75.78;30.73;;;;;;;;;;5017008;28;20037;-64
2022/01/11 10:35:53;;;;;;;77.10;32.70;;;;;;;;;;5050782;28;20044;-63
2022/01/11 10:38:25;;;;;;;75.85;30.08;;;;;;;;;;5051123;28;20072;-63
2022/01/11 10:40:52;;;;;;;69.85;31.38;;;;;;;;;;5051294;28;20045;-62
2022/01/11 10:43:22;;;;;;;71.07;31.00;;;;;;;;;;5049839;28;20090;-62
2022/01/11 10:45:51;;;;;;;68.55;29.98;;;;;;;;;;5051276;28;20393;-64
2022/01/11 10:48:19;;;;;;;62.45;28.90;;;;;;;;;;5051263;28;20041;-63
2022/01/11 10:50:46;;;;;;;72.50;31.15;;;;;;;;;;5050458;28;20045;-63
2022/01/11 10:53:21;;;;;;;59.72;28.58;;;;;;;;;;5032695;28;20052;-62
2022/01/11 10:55:49;;;;;;;66.90;30.48;;;;;;;;;;5033049;28;20045;-62
2022/01/11 10:58:16;;;;;;;66.10;27.90;;;;;;;;;;5049935;28;20041;-63
2022/01/11 11:00:43;;;;;;;68.68;29.67;;;;;;;;;;5051070;28;20037;-62
2022/01/11 11:03:12;;;;;;;69.20;28.88;;;;;;;;;;5050260;28;20086;-62
2022/01/11 11:05:49;;;;;;;64.25;28.17;;;;;;;;;;5049675;28;20589;-62
2022/01/11 11:08:21;;;;;;;67.93;27.92;;;;;;;;;;5011241;28;20052;-62
2022/01/11 11:10:50;;;;;;;60.63;28.25;;;;;;;;;;5031193;28;20048;-62
2022/01/11 11:13:20;;;;;;;55.97;25.02;;;;;;;;;;5025034;28;20054;-62
2022/01/11 11:15:48;;;;;;;59.17;27.67;;;;;;;;;;5031272;28;20037;-62
2022/01/11 11:18:27;;;;;;;62.35;28.80;;;;;;;;;;5030482;28;20071;-62
2022/01/11 11:20:53;;;;;;;55.03;26.30;;;;;;;;;;5013270;28;20049;-62
2022/01/11 11:23:19;;;;;;;61.88;28.35;;;;;;;;;;5031519;28;20057;-62
2022/01/11 11:25:46;;;;;;;56.03;27.88;;;;;;;;;;5030045;28;20488;-62
2022/01/11 11:28:12;;;;;;;55.88;27.90;;;;;;;;;;5031127;28;20049;-61
2022/01/11 11:30:38;;;;;;;53.70;28.20;;;;;;;;;;5030886;28;20033;-62
2022/01/11 11:33:06;;;;;;;56.92;28.23;;;;;;;;;;5030123;28;20088;-62
2022/01/11 11:35:32;;;;;;;61.00;27.73;;;;;;;;;;5031000;28;20327;-62
2022/01/11 11:38:01;;;;;;;58.80;27.98;;;;;;;;;;5030762;28;20140;-61
2022/01/11 11:40:27;;;;;;;52.20;24.95;;;;;;;;;;5030068;28;20385;-62
2022/01/11 11:42:59;;;;;;;57.47;27.02;;;;;;;;;;5031220;28;20144;-61
2022/01/11 11:45:28;;;;;;;55.92;26.63;;;;;;;;;;5030785;28;20046;-61
2022/01/11 11:48:10;;;;;;;55.60;28.42;;;;;;;;;;5029578;28;20041;-61
2022/01/11 11:50:51;;;;;;;54.88;27.45;;;;;;;;;;5030754;28;20042;-61
2022/01/11 11:53:20;;;;;;;60.33;27.35;;;;;;;;;;5030876;28;20121;-61
2022/01/11 11:55:47;;;;;;;64.55;27.50;;;;;;;;;;5034929;28;20042;-61
2022/01/11 11:58:18;;;;;;;53.90;26.30;;;;;;;;;;5034976;28;20124;-61
2022/01/11 12:00:45;;;;;;;54.80;25.30;;;;;;;;;;5034002;28;20049;-61
2022/01/11 12:03:19;;;;;;;52.97;26.02;;;;;;;;;;5035017;28;20155;-62
2022/01/11 12:05:47;;;;;;;58.97;26.42;;;;;;;;;;5034745;28;20393;-61
2022/01/11 12:08:31;;;;;;;50.63;24.05;;;;;;;;;;5033676;28;20053;-61
2022/01/11 12:10:57;;;;;;;;;;;;;;;;;;5035040;28;20041;-61
2022/01/11 12:13:37;;;;;;;52.58;24.88;;;;;;;;;;5016469;28;19925;-61
2022/01/11 12:16:04;;;;;;;53.72;25.75;;;;;;;;;;5016155;28;20053;-61
2022/01/11 12:18:43;;;;;;;50.80;24.65;;;;;;;;;;5034108;28;20045;-61
2022/01/11 12:21:10;;;;;;;51.83;24.73;;;;;;;;;;5005321;28;20482;-62
2022/01/11 12:23:36;;;;;;;44.83;23.08;;;;;;;;;;5003137;28;20097;-61
2022/01/11 12:26:13;;;;;;;49.40;24.25;;;;;;;;;;5033824;28;20041;-61
2022/01/11 12:28:39;;;;;;;52.67;24.63;;;;;;;;;;5048928;28;20635;-61
2022/01/11 12:31:25;;;;;;;45.17;22.58;;;;;;;;;;5015854;28;20041;-61
2022/01/11 12:33:51;;;;;;;46.92;22.55;;;;;;;;;;5034146;28;20033;-61
2022/01/11 12:36:17;;;;;;;44.67;22.70;;;;;;;;;;5033620;28;20168;-61
2022/01/11 12:38:59;;;;;;;45.88;21.38;;;;;;;;;;5033924;28;20478;-61
2022/01/11 12:41:29;;;;;;;46.88;23.30;;;;;;;;;;5028711;28;20115;-61
2022/01/11 12:46:59;;;;;;;43.80;21.17;;;;;;;;;;5034165;28;20046;-61
2022/01/11 12:49:26;;;;;;;39.33;19.67;;;;;;;;;;5033839;28;20046;-62
2022/01/11 12:51:57;;;;;;;43.05;23.40;;;;;;;;;;5032745;28;20046;-62
2022/01/11 12:54:24;;;;;;;41.50;19.98;;;;;;;;;;5032675;28;20135;-61
2022/01/11 12:56:54;;;;;;;41.38;19.95;;;;;;;;;;5012366;28;20045;-62
2022/01/11 12:59:21;;;;;;;42.95;20.00;;;;;;;;;;5031028;28;20060;-62
2022/01/11 13:01:47;;;;;;;42.80;20.63;;;;;;;;;;5033761;28;20049;-62
2022/01/11 13:04:13;;;;;;;41.58;20.58;;;;;;;;;;5031255;28;20041;-63
2022/01/11 13:06:40;;;;;;;38.25;20.02;;;;;;;;;;5040841;28;20479;-62
2022/01/11 13:09:08;;;;;;;39.25;20.48;;;;;;;;;;5053127;28;20066;-62
2022/01/11 13:11:35;;;;;;;42.08;19.10;;;;;;;;;;5053129;28;20392;-62
2022/01/11 13:14:31;;;;;;;41.33;20.38;;;;;;;;;;5053028;28;20136;-62
2022/01/11 13:17:00;;;;;;;38.92;19.25;;;;;;;;;;5033572;28;20493;-62
2022/01/11 13:19:26;;;;;;;43.38;19.85;;;;;;;;;;5028229;28;20041;-62
2022/01/11 13:22:02;;;;;;;44.47;20.67;;;;;;;;;;5053024;28;20120;-62
2022/01/11 13:24:35;;;;;;;42.08;19.35;;;;;;;;;;5053195;28;20095;-62
2022/01/11 13:27:08;;;;;;;42.85;21.33;;;;;;;;;;5034491;28;20087;-62
2022/01/11 13:29:34;;;;;;;44.75;20.75;;;;;;;;;;5052199;28;20061;-62
2022/01/11 13:32:00;;;;;;;35.83;19.73;;;;;;;;;;5034349;28;20124;-62
2022/01/11 13:34:26;;;;;;;35.95;18.77;;;;;;;;;;5035178;28;20048;-62
2022/01/11 13:36:56;;;;;;;39.42;19.67;;;;;;;;;;5053132;28;20396;-62
2022/01/11 13:39:25;;;;;;;35.63;19.50;;;;;;;;;;5052441;28;20048;-62
2022/01/11 13:41:53;;;;;;;37.25;18.63;;;;;;;;;;5035305;28;20049;-62
2022/01/11 13:44:20;;;;;;;34.00;17.83;;;;;;;;;;5052996;28;20158;-62
2022/01/11 13:46:50;;;;;;;33.70;16.98;;;;;;;;;;5033813;28;20068;-62
2022/01/11 13:49:18;;;;;;;33.22;17.38;;;;;;;;;;5053003;28;20040;-62
2022/01/11 13:51:45;;;;;;;37.75;19.38;;;;;;;;;;5034937;28;20127;-62
2022/01/11 13:54:12;;;;;;;31.08;17.45;;;;;;;;;;5045984;28;20093;-62
2022/01/11 13:56:41;;;;;;;38.03;19.00;;;;;;;;;;5052491;28;20041;-63
2022/01/11 13:59:07;;;;;;;34.65;17.98;;;;;;;;;;5052646;28;20048;-62
2022/01/11 14:01:34;;;;;;;37.22;16.98;;;;;;;;;;5052972;28;20094;-62
2022/01/11 14:04:05;;;;;;;36.10;18.35;;;;;;;;;;5053228;28;20045;-61
2022/01/11 14:06:40;;;;;;;34.58;17.98;;;;;;;;;;5017697;28;20054;-59
2022/01/11 14:09:10;;;;;;;34.42;17.42;;;;;;;;;;5052409;28;20036;-59
2022/01/11 14:11:39;;;;;;;36.60;18.10;;;;;;;;;;5001972;28;20180;-59
2022/01/11 14:14:06;;;;;;;37.60;17.95;;;;;;;;;;5002967;28;20058;-58
2022/01/11 14:16:33;;;;;;;36.65;18.15;;;;;;;;;;5007048;28;20111;-60
2022/01/11 14:19:08;;;;;;;36.30;19.13;;;;;;;;;;5015720;28;20045;-60
2022/01/11 14:21:50;;;;;;;35.67;17.92;;;;;;;;;;5008053;28;20934;-60
2022/01/11 14:24:16;;;;;;;37.10;17.13;;;;;;;;;;5007449;28;20045;-61